Terminal Aerodrome Forecast
Issued by NWS

Current Version | Previous Version | Graphics & Text | Print | Product List | Glossary On
Versions: 1 2 3 4 5 6 7 8 9 10 11 12 13 14 15 16
148
FTUS41 KPBZ 152321
TAFHLG
TAF
KHLG 152321Z 1600/1624 29012G24KT P6SM SCT025 BKN050
     FM160500 30010KT P6SM BKN025
     FM161200 32012KT P6SM SCT035
     FM162300 32006KT P6SM SKC=

USA.gov is the U.S. government's official web portal to all federal, state and local government web resources and services.